createdAt,value
2019-01-30T00:00:24.466Z,56.13
2019-01-30T00:03:13.034Z,38.67
2019-01-30T00:06:02.076Z,43.10
2019-01-30T00:08:51.373Z,53.35
2019-01-30T00:11:40.612Z,41.98
2019-01-30T00:14:29.853Z,48.55
2019-01-30T00:17:18.642Z,47.03
2019-01-30T00:20:11.666Z,40.00
2019-01-30T00:23:00.717Z,44.60
2019-01-30T00:25:49.491Z,42.85
2019-01-30T00:28:38.585Z,49.75
2019-01-30T00:31:28.111Z,40.88
2019-01-30T00:34:17.628Z,43.53
2019-01-30T00:37:07.066Z,44.38
2019-01-30T00:39:56.053Z,37.40
2019-01-30T00:42:45.137Z,36.98
2019-01-30T00:45:34.590Z,47.95
2019-01-30T00:48:23.776Z,41.28
2019-01-30T00:51:12.997Z,49.40
2019-01-30T00:54:02.625Z,44.15
2019-01-30T00:56:51.915Z,48.05
2019-01-30T00:59:41.268Z,38.85
2019-01-30T01:02:29.881Z,44.53
2019-01-30T01:05:18.851Z,44.93
2019-01-30T01:08:07.990Z,43.00
2019-01-30T01:10:57.531Z,45.30
2019-01-30T01:13:46.592Z,42.00
2019-01-30T01:16:35.789Z,37.58
2019-01-30T01:19:25.537Z,35.35
2019-01-30T01:22:14.697Z,51.23
2019-01-30T01:25:05.404Z,44.05
2019-01-30T01:27:54.773Z,45.03
2019-01-30T01:30:44.250Z,40.33
2019-01-30T01:33:33.121Z,40.55
2019-01-30T01:36:22.482Z,41.25
2019-01-30T01:39:11.449Z,35.50
2019-01-30T01:42:00.272Z,42.62
2019-01-30T01:44:49.021Z,45.40
2019-01-30T01:47:38.107Z,36.80
2019-01-30T01:50:28.834Z,38.35
2019-01-30T01:53:17.734Z,32.50
2019-01-30T01:56:07.375Z,34.15
2019-01-30T01:58:56.661Z,42.27
2019-01-30T02:01:46.007Z,36.30
2019-01-30T02:04:35.233Z,43.90
2019-01-30T02:07:24.555Z,30.77
2019-01-30T02:10:19.488Z,42.25
2019-01-30T02:13:08.418Z,26.75
2019-01-30T02:15:57.589Z,37.05
2019-01-30T02:18:46.735Z,32.93
2019-01-30T02:21:36.424Z,36.05
2019-01-30T02:24:25.809Z,31.37
2019-01-30T02:27:15.179Z,28.23
2019-01-30T02:30:07.126Z,35.68
2019-01-30T02:32:55.871Z,35.53
2019-01-30T02:35:44.548Z,30.85
2019-01-30T02:38:33.831Z,35.95
2019-01-30T02:41:23.104Z,26.65
2019-01-30T02:44:12.228Z,37.28
2019-01-30T02:47:01.408Z,36.42
2019-01-30T02:49:50.712Z,33.15
2019-01-30T02:52:39.609Z,28.25
2019-01-30T02:55:28.583Z,25.68
2019-01-30T02:58:17.189Z,25.23
2019-01-30T03:01:06.370Z,23.80
2019-01-30T03:03:55.792Z,34.43
2019-01-30T03:06:44.929Z,29.37
2019-01-30T03:09:33.719Z,28.03
2019-01-30T03:12:23.035Z,30.60
2019-01-30T03:15:17.791Z,29.52
2019-01-30T03:18:07.004Z,25.35
2019-01-30T03:20:56.200Z,26.62
2019-01-30T03:23:45.347Z,25.85
2019-01-30T03:26:34.540Z,37.50
2019-01-30T03:29:23.825Z,23.65
2019-01-30T03:32:13.079Z,28.32
2019-01-30T03:35:01.727Z,33.92
2019-01-30T03:37:50.798Z,27.87
2019-01-30T03:40:40.386Z,30.40
2019-01-30T03:43:29.424Z,28.25
2019-01-30T03:46:18.486Z,25.37
2019-01-30T03:49:07.850Z,17.75
2019-01-30T03:51:57.245Z,27.40
2019-01-30T03:54:46.322Z,20.50
2019-01-30T03:57:35.676Z,23.62
2019-01-30T04:00:27.393Z,23.25
2019-01-30T04:03:16.073Z,24.23
2019-01-30T04:06:05.225Z,22.95
2019-01-30T04:08:54.796Z,24.93
2019-01-30T04:11:43.809Z,19.98
2019-01-30T04:14:33.042Z,18.55
2019-01-30T04:17:21.547Z,26.42
2019-01-30T04:20:15.319Z,29.63
2019-01-30T04:23:04.634Z,20.32
2019-01-30T04:25:53.529Z,23.62
2019-01-30T04:28:42.875Z,22.50
2019-01-30T04:31:38.333Z,20.00
2019-01-30T04:34:22.943Z,24.02
2019-01-30T04:37:12.097Z,20.88
2019-01-30T04:40:01.695Z,22.15
2019-01-30T04:42:50.868Z,25.30
2019-01-30T04:45:39.823Z,27.27
2019-01-30T04:48:29.221Z,18.02
2019-01-30T04:51:18.356Z,20.62
2019-01-30T04:54:07.453Z,30.25
2019-01-30T04:56:56.703Z,25.68
2019-01-30T04:59:45.137Z,22.07
2019-01-30T05:02:34.611Z,21.90
2019-01-30T05:05:24.094Z,26.65
2019-01-30T05:08:13.777Z,26.33
2019-01-30T05:11:02.928Z,22.10
2019-01-30T05:13:52.033Z,26.20
2019-01-30T05:16:41.165Z,26.87
2019-01-30T05:19:30.726Z,27.75
2019-01-30T05:22:20.215Z,26.23
2019-01-30T05:25:11.080Z,22.45
2019-01-30T05:28:00.080Z,23.83
2019-01-30T05:30:49.245Z,24.65
2019-01-30T05:33:38.576Z,29.92
2019-01-30T05:36:27.381Z,24.37
2019-01-30T05:39:16.433Z,26.20
2019-01-30T05:42:05.929Z,28.20
2019-01-30T05:44:54.463Z,30.97
2019-01-30T05:47:43.436Z,27.25
2019-01-30T05:50:32.491Z,27.22
2019-01-30T05:53:22.379Z,30.08
2019-01-30T05:56:11.241Z,27.27
2019-01-30T05:59:00.615Z,28.92
2019-01-30T06:01:49.629Z,28.38
2019-01-30T06:04:39.251Z,28.12
2019-01-30T06:07:28.521Z,25.65
2019-01-30T06:10:18.119Z,24.30
2019-01-30T06:13:06.957Z,25.00
2019-01-30T06:15:55.915Z,25.47
2019-01-30T06:18:44.981Z,27.75
2019-01-30T06:21:34.098Z,32.08
2019-01-30T06:24:22.701Z,24.43
2019-01-30T06:27:12.034Z,31.35
2019-01-30T06:30:01.554Z,32.35
2019-01-30T06:32:51.095Z,22.58
2019-01-30T06:35:40.608Z,23.30
2019-01-30T06:38:30.290Z,24.57
2019-01-30T06:41:19.853Z,22.60
2019-01-30T06:44:09.844Z,21.87
2019-01-30T06:46:58.977Z,18.92
2019-01-30T06:49:48.087Z,34.08
2019-01-30T06:52:36.864Z,19.00
2019-01-30T06:55:26.408Z,22.32
2019-01-30T06:58:15.752Z,27.20
2019-01-30T07:01:05.567Z,28.85
2019-01-30T07:03:54.732Z,28.00
2019-01-30T07:06:43.853Z,22.25
2019-01-30T07:09:33.371Z,21.25
2019-01-30T07:12:22.138Z,21.62
2019-01-30T07:15:11.599Z,22.73
2019-01-30T07:18:00.559Z,21.82
2019-01-30T07:20:49.933Z,19.80
2019-01-30T07:23:38.588Z,24.30
2019-01-30T07:26:27.872Z,24.67
2019-01-30T07:29:16.316Z,22.63
2019-01-30T07:32:05.534Z,24.07
2019-01-30T07:34:54.637Z,21.65
2019-01-30T07:37:43.912Z,22.97
2019-01-30T07:40:33.240Z,19.87
2019-01-30T07:43:23.119Z,19.02
2019-01-30T07:46:12.539Z,18.45
2019-01-30T07:49:01.390Z,17.85
2019-01-30T07:51:50.872Z,20.35
2019-01-30T07:54:40.093Z,17.48
2019-01-30T07:57:28.898Z,17.60
2019-01-30T08:00:25.125Z,22.57
2019-01-30T08:03:14.814Z,14.50
2019-01-30T08:06:03.654Z,18.87
2019-01-30T08:08:53.563Z,15.53
2019-01-30T08:11:42.923Z,20.25
2019-01-30T08:14:32.221Z,15.68
2019-01-30T08:17:21.873Z,20.45
2019-01-30T08:20:17.480Z,21.87
2019-01-30T08:23:07.470Z,14.13
2019-01-30T08:25:55.948Z,20.55
2019-01-30T08:28:45.649Z,17.95
2019-01-30T08:31:35.019Z,24.50
2019-01-30T08:34:24.665Z,17.90
2019-01-30T08:37:13.749Z,17.12
2019-01-30T08:40:03.103Z,19.43
2019-01-30T08:42:52.487Z,16.57
2019-01-30T08:45:42.256Z,20.00
2019-01-30T08:48:31.316Z,18.02
2019-01-30T08:51:20.027Z,17.77
2019-01-30T08:54:08.995Z,23.20
2019-01-30T08:56:57.809Z,21.37
2019-01-30T08:59:47.160Z,15.68
2019-01-30T09:02:36.213Z,19.02
2019-01-30T09:05:25.185Z,18.60
2019-01-30T09:08:14.037Z,16.93
2019-01-30T09:11:03.837Z,18.50
2019-01-30T09:13:52.970Z,15.98
2019-01-30T09:16:42.167Z,15.83
2019-01-30T09:19:31.475Z,20.20
2019-01-30T09:22:20.708Z,14.35
2019-01-30T09:25:14.131Z,17.62
2019-01-30T09:28:03.451Z,17.00
2019-01-30T09:30:52.529Z,18.62
2019-01-30T09:33:41.651Z,18.17
2019-01-30T09:36:30.632Z,16.82
2019-01-30T09:39:20.054Z,16.55
2019-01-30T09:42:09.085Z,16.27
2019-01-30T09:44:57.959Z,14.80
2019-01-30T09:47:47.136Z,13.62
2019-01-30T09:50:36.229Z,17.52
2019-01-30T09:53:25.532Z,14.27
2019-01-30T09:56:15.601Z,16.90
2019-01-30T09:59:05.272Z,24.47
2019-01-30T10:01:54.264Z,12.73
2019-01-30T10:04:43.351Z,16.73
2019-01-30T10:07:32.401Z,15.97
2019-01-30T10:10:28.617Z,13.23
2019-01-30T10:13:18.300Z,17.60
2019-01-30T18:56:47.627Z,19.17
2019-01-30T18:59:36.306Z,18.50
2019-01-30T19:02:25.451Z,23.35
2019-01-30T19:05:16.280Z,22.10
2019-01-30T19:08:05.226Z,22.50
2019-01-30T19:10:54.410Z,23.07
2019-01-30T19:13:43.979Z,18.98
2019-01-30T19:16:33.048Z,20.00
2019-01-30T19:19:22.311Z,22.37
2019-01-30T19:22:11.127Z,28.42
2019-01-30T19:24:59.946Z,26.07
2019-01-30T19:27:49.087Z,22.45
2019-01-30T19:30:38.012Z,27.15
2019-01-30T19:33:27.376Z,28.73
2019-01-30T19:36:16.885Z,27.77
2019-01-30T19:39:08.880Z,32.03
2019-01-30T19:41:57.987Z,30.90
2019-01-30T19:44:47.382Z,23.47
2019-01-30T19:47:36.613Z,26.90
2019-01-30T19:50:33.185Z,24.80
2019-01-30T19:53:22.634Z,29.07
2019-01-30T19:56:12.142Z,30.35
2019-01-30T19:59:01.624Z,31.60
2019-01-30T20:01:50.885Z,28.17
2019-01-30T20:04:40.277Z,27.20
2019-01-30T20:07:29.032Z,27.95
2019-01-30T20:10:36.387Z,32.48
2019-01-30T20:13:25.889Z,31.07
2019-01-30T20:16:15.191Z,31.45
2019-01-30T20:19:04.095Z,34.55
2019-01-30T20:21:53.261Z,29.57
2019-01-30T20:24:42.258Z,33.15
2019-01-30T20:27:31.406Z,28.83
2019-01-30T20:30:23.528Z,31.50
2019-01-30T20:33:12.194Z,28.77
2019-01-30T20:36:01.731Z,32.05
2019-01-30T20:38:51.336Z,31.55
2019-01-30T20:41:40.537Z,32.60
2019-01-30T20:44:29.628Z,37.98
2019-01-30T20:47:19.097Z,30.50
2019-01-30T20:50:15.956Z,33.00
2019-01-30T20:53:05.656Z,32.78
2019-01-30T20:55:55.057Z,35.48
2019-01-30T20:58:44.115Z,31.07
2019-01-30T21:01:32.981Z,30.43
2019-01-30T21:04:22.342Z,29.60
2019-01-30T21:07:11.828Z,32.00
2019-01-30T21:10:01.104Z,28.40
2019-01-30T21:12:49.914Z,31.45
2019-01-30T21:15:39.333Z,30.27
2019-01-30T21:18:28.496Z,32.33
2019-01-30T21:21:17.356Z,30.80
2019-01-30T21:24:06.411Z,37.47
2019-01-30T21:26:55.790Z,40.08
2019-01-30T21:29:44.859Z,31.17
2019-01-30T21:32:34.326Z,35.33
2019-01-30T21:35:23.695Z,42.00
2019-01-30T21:38:12.567Z,32.88
2019-01-30T21:43:50.514Z,37.20
2019-01-30T21:46:39.252Z,39.40
2019-01-30T21:49:28.698Z,28.87
2019-01-30T21:52:17.376Z,30.48
2019-01-30T21:55:16.693Z,32.00
2019-01-30T21:58:05.838Z,31.33
2019-01-30T22:00:55.291Z,38.70
2019-01-30T22:03:44.546Z,36.38
2019-01-30T22:06:33.654Z,32.85
2019-01-30T22:09:23.027Z,35.28
2019-01-30T22:12:12.082Z,30.55
2019-01-30T22:15:01.564Z,32.80
2019-01-30T22:17:50.324Z,31.62
2019-01-30T22:20:39.655Z,30.02
2019-01-30T22:23:28.652Z,29.18
2019-01-30T22:26:18.139Z,30.80
2019-01-30T22:29:07.473Z,33.30
2019-01-30T22:31:56.354Z,28.70
2019-01-30T22:37:33.939Z,31.55
